Detalhes do Voo

Voltar

 DETALHES DO VÔO

Piloto: GLD769 Ricardo D. Aeronave: TBM-900 Gold Virtual Distância: 247NM
Origem: SBMT Destino: SBLO Duração: 1.76
Validação: Validado Tipo: Regular Matrícula: PR-GVD
ZFW: 4581 Block Fuel/Init FOB 184/0 Combustível em Voo 184
Passageiros: 3 Carga: 0 Alternativo: SBBU
Hora da Decolagem: 2242 Velocidade de Cruzeiro: 335 Nível de Voo: FL240
Regra Visual: IFR ICAO da Aeronave: TBM9 Unidade de Peso: Kg
Data: 18/06/2020 Observação: GOLD ACARS Rede: VATSIM
Acidentou?: Não Comentários do Validador: Pontuação do Voo 100.217

 ROTA

ROTA CGO SCB A428 LON
REMARKS OPR/GOLD VIRTUAL /RMK FROM SJRG/PIC PER/B GLD769 /WWW.GOLDVIRTUAL.COM.BR

 PENALIDADES DO VOO

Para entender como cada item é pontuado, consulte as regras de avaliação.

Nenhuma penalidade registrada para este voo.

 ANÁLISE DO POUSO

Vento durante o pouso: 18º/0 kt Proa durante o pouso: 290
V/S do Pouso: 112 ft/min IAS do Pouso: 93 kt
Força G no pouso: 1.184 G Bank no pouso: -1.21
Pitch no Pouso 2.63 Flaps no Pouso 0
Nav Lights ON Landing Lights ON
Beacon Lights ON Strobe Lights ON

 MAPA DO VOO

 PERFIL VERTICAL DO VOO

 EVENTOS PRINCIPAIS DO VOO

DATAEVENTOIASALTITUDE
2020-06-19 01:42:12 GOLD ACARS VERSION 0.0.3.1200
2020-06-19 01:42:12 BOARDING00
2020-06-19 01:42:12 BCN LIGHTS ON00
2020-06-19 01:50:56 STB LIGHTS ON02172
2020-06-19 01:50:57 NAV LIGHTS ON02172
2020-06-19 01:51:23 STARTING ENGINE 102172
2020-06-19 01:57:02 TAXI LIGHTS ON02383
2020-06-19 01:57:58 TAXI TO THE RWY32383
2020-06-19 02:00:50 LND LIGHTS ON02380
2020-06-19 02:03:18 TAXI SPEED ABOVE 25 KTS412382
2020-06-19 02:03:34 CLIMBING1162390
2020-06-19 02:03:45 GEAR UP1232632
2020-06-19 02:04:58 TAKE OFF WITH INCORRECT QNH - SET:1013 LOCAL: 10201525003
2020-06-19 02:09:27 LIGHTS ON ABOVE 10000 ft18710501
2020-06-19 02:12:16 LND LIGHTS OFF17513735
2020-06-19 02:12:17 LND LIGHTS ON17513754
2020-06-19 02:12:21 TAXI LIGHTS OFF17513833
2020-06-19 02:20:57 CRUISE18124003
2020-06-19 03:09:31 DESCEND13124064
2020-06-19 03:18:25 TAXI LIGHTS ON16810158
2020-06-19 03:23:16 GEAR DOWN981873
2020-06-19 03:23:31 LANDED921854
2020-06-19 03:23:48 TAXI TO THE GATE251871
2020-06-19 03:24:40 LND LIGHTS OFF51872
2020-06-19 03:24:48 STB LIGHTS OFF51872
2020-06-19 03:25:21 AT THE GATE01873
2020-06-19 03:26:10 STOPPING ENGINE 101873
2020-06-19 03:26:22 NAV LIGHTS OFF01873
2020-06-19 03:26:37 TAXI LIGHTS OFF01873
2020-06-19 03:27:38 FLIGHT FINISHED01873

 DADOS DO ACARS

DATA IAS GS ALTITUDE COMBUSTÍVEL USADO OAT FASE DO VOO
2020-06-19 01:44:12 0 0 346 -78 18 BOARDING
2020-06-19 01:45:13 0 0 2172 -78 18 BOARDING
2020-06-19 01:46:13 0 0 2172 -78 18 BOARDING
2020-06-19 01:47:13 0 0 2172 -78 18 BOARDING
2020-06-19 01:48:14 0 0 2172 -78 18 BOARDING
2020-06-19 01:49:15 0 0 2172 -78 18 BOARDING
2020-06-19 01:50:15 0 0 2172 -78 18 BOARDING
2020-06-19 01:51:16 0 0 2172 -78 18 BOARDING
2020-06-19 01:52:16 0 0 2172 -77 18 BOARDING
2020-06-19 01:53:16 0 0 2383 -75 18 BOARDING
2020-06-19 01:54:17 0 0 2383 -74 18 BOARDING
2020-06-19 01:55:17 0 0 2383 -72 18 BOARDING
2020-06-19 01:56:17 0 0 2383 -70 18 BOARDING
2020-06-19 01:57:18 0 0 2383 -69 18 BOARDING
2020-06-19 01:58:18 10 10 2382 -67 18 BOARDING
2020-06-19 01:59:18 10 12 2383 -66 18 TAXI TO THE RWY
2020-06-19 02:00:19 0 1 2380 -64 18 TAXI TO THE RWY
2020-06-19 02:01:19 0 0 2380 -62 18 TAXI TO THE RWY
2020-06-19 02:02:19 8 8 2381 -61 18 TAXI TO THE RWY
2020-06-19 02:03:20 48 55 2382 -58 18 TAXI TO THE RWY
2020-06-19 02:04:20 125 133 3968 -53 15 TAXI TO THE RWY
2020-06-19 02:05:20 168 199 5502 -49 11 CLIMBING
2020-06-19 02:06:21 193 226 6752 -45 8 CLIMBING
2020-06-19 02:07:21 196 211 7960 -41 6 CLIMBING
2020-06-19 02:08:21 193 213 9172 -38 3 CLIMBING
2020-06-19 02:09:22 188 212 10375 -34 0 CLIMBING
2020-06-19 02:10:22 184 212 11473 -31 -1 CLIMBING
2020-06-19 02:11:22 179 210 12676 -27 -4 CLIMBING
2020-06-19 02:12:23 175 207 13872 -24 -6 CLIMBING
2020-06-19 02:13:23 172 205 15065 -21 -9 CLIMBING
2020-06-19 02:14:23 181 218 16311 -18 -12 CLIMBING
2020-06-19 02:15:24 181 220 17523 -15 -14 CLIMBING
2020-06-19 02:16:24 178 218 18718 -11 -17 CLIMBING
2020-06-19 02:17:24 174 214 19904 -8 -20 CLIMBING
2020-06-19 02:18:25 169 210 21082 -5 -22 CLIMBING
2020-06-19 02:19:25 164 205 22255 -3 -25 CLIMBING
2020-06-19 02:20:25 174 222 23484 0 -28 CLIMBING
2020-06-19 02:21:26 194 251 24008 3 -29 CLIMBING
2020-06-19 02:22:26 207 268 24006 6 -29 CRUISE
2020-06-19 02:23:27 210 271 24003 9 -29 CRUISE
2020-06-19 02:24:27 193 247 23995 12 -29 CRUISE
2020-06-19 02:25:27 187 238 23998 14 -29 CRUISE
2020-06-19 02:26:28 185 236 23999 16 -29 CRUISE
2020-06-19 02:27:28 184 234 23999 19 -29 CRUISE
2020-06-19 02:28:28 184 233 23998 21 -29 CRUISE
2020-06-19 02:29:29 184 233 23998 23 -30 CRUISE
2020-06-19 02:30:29 184 233 23997 26 -30 CRUISE
2020-06-19 02:31:29 183 233 23997 28 -30 CRUISE
2020-06-19 02:32:30 184 234 23996 30 -30 CRUISE
2020-06-19 02:33:30 184 234 23996 33 -30 CRUISE
2020-06-19 02:34:30 184 233 23995 35 -30 CRUISE
2020-06-19 02:35:31 183 234 23995 37 -30 CRUISE
2020-06-19 02:36:31 184 235 24002 40 -30 CRUISE
2020-06-19 02:37:31 184 236 24001 42 -30 CRUISE
2020-06-19 02:38:32 185 236 24001 44 -30 CRUISE
2020-06-19 02:39:32 185 236 24000 47 -30 CRUISE
2020-06-19 02:40:32 184 236 24001 49 -30 CRUISE
2020-06-19 02:41:33 184 236 24000 51 -30 CRUISE
2020-06-19 02:42:33 184 236 24000 54 -30 CRUISE
2020-06-19 02:43:33 184 236 23999 56 -30 CRUISE
2020-06-19 02:44:34 184 235 23997 58 -30 CRUISE
2020-06-19 02:45:34 184 235 23997 61 -30 CRUISE
2020-06-19 02:46:34 184 235 23996 63 -30 CRUISE
2020-06-19 02:47:35 184 234 23995 65 -30 CRUISE
2020-06-19 02:48:35 183 234 23995 68 -30 CRUISE
2020-06-19 02:49:35 183 234 23994 70 -30 CRUISE
2020-06-19 02:50:36 184 234 24002 72 -30 CRUISE
2020-06-19 02:51:36 185 235 24001 75 -30 CRUISE
2020-06-19 02:52:36 185 234 24000 77 -30 CRUISE
2020-06-19 02:53:37 184 234 24000 79 -30 CRUISE
2020-06-19 02:54:37 184 234 23999 82 -30 CRUISE
2020-06-19 02:55:37 184 234 23999 84 -30 CRUISE
2020-06-19 02:56:38 184 234 23998 86 -30 CRUISE
2020-06-19 02:57:38 184 234 23998 89 -30 CRUISE
2020-06-19 02:58:39 184 234 23997 91 -30 CRUISE
2020-06-19 02:59:39 184 234 23996 93 -30 CRUISE
2020-06-19 03:00:39 183 235 23996 96 -30 CRUISE
2020-06-19 03:01:40 183 235 23996 98 -30 CRUISE
2020-06-19 03:02:40 183 235 23995 100 -30 CRUISE
2020-06-19 03:03:40 183 235 23994 103 -30 CRUISE
2020-06-19 03:04:41 184 235 24002 105 -30 CRUISE
2020-06-19 03:05:41 184 236 24001 107 -30 CRUISE
2020-06-19 03:06:41 185 236 24001 110 -30 CRUISE
2020-06-19 03:07:42 155 193 23961 111 -29 CRUISE
2020-06-19 03:08:42 96 111 23923 112 -29 CRUISE
2020-06-19 03:09:42 142 175 23953 114 -29 CRUISE
2020-06-19 03:10:43 166 234 22874 116 -26 DESCEND
2020-06-19 03:11:43 166 262 21409 117 -24 DESCEND
2020-06-19 03:12:43 170 259 19915 118 -21 DESCEND
2020-06-19 03:13:44 168 247 18394 119 -18 DESCEND
2020-06-19 03:14:44 166 236 16570 120 -14 DESCEND
2020-06-19 03:15:44 166 194 14735 121 -10 DESCEND
2020-06-19 03:16:45 164 185 13135 122 -6 DESCEND
2020-06-19 03:17:45 167 184 11331 123 -2 DESCEND
2020-06-19 03:18:46 170 184 9531 124 1 DESCEND
2020-06-19 03:19:46 174 185 7728 126 5 DESCEND
2020-06-19 03:20:46 176 183 5921 127 10 DESCEND
2020-06-19 03:21:47 176 186 4105 129 14 DESCEND
2020-06-19 03:22:47 183 191 2218 131 19 DESCEND
2020-06-19 03:23:47 32 28 1871 132 19 DESCEND
2020-06-19 03:24:48 5 5 1872 134 19 LANDED
2020-06-19 03:25:48 0 0 1873 135 19 TAXI TO THE GATE
2020-06-19 03:26:48 0 0 1873 135 19 AT THE GATE